Memorial Field
KHOT : now visible

Airfield :











YOU CAN JOIN US ON...

 
LOGIN :

Register | Disclaimer

   EN    FR    IT 

 









Legend :    VFR   Marginal VFR   IFR   Intensive IFR   Very Intensive IFR
Visi :
Ceiling :
>= 8 km
>= 3000ft
5 to 8 km
1000 to 3000 ft
1500m to 5 km
500 to 1000 ft
800 to 1500m
200 to 500 ft
< 800m
< 200 ft
Symbols :   Thunderstorms  Fog  Heavy snow  Heavy precipitations  Wind > 20 kt






- Airport Elevation : 540 ft
- IATA code : HOT


KHOT - Memorial Field

CURRENT METAR :
  • 011253Z AUTO 08007KT 7SM BKN060 BKN080 BKN090 28/24 A3002 RMK AO2 SLP156 T02830239

EXPIRED METARs :
  • 011153Z AUTO 29004KT 3SM BR CLR 26/24 A3000 RMK AO2 SLP149 T02560239 10278 20256 53008
  • 011053Z AUTO 28003KT 5SM BR CLR 26/24 A2998 RMK AO2 SLP144 T02560239

TAF KHOT
Valid from the 01 at 12:00 until the 02 at 12:00 UTC


011120Z 0112/0212 VRB06KT P6SM VCSH SCT050 BKN100 OVC250
TEMPO 0112/0114 5SM BR
FM011400 02007KT P6SM VCTS BKN040CB BKN060 OVC200
TEMPO 0115/0119 4SM -TSRA BR BKN025CB
FM012200 04006KT P6SM VCSH SCT050 OVC100
FM020400 VRB03KT P6SM SCT050 BKN100
KZME FIR / North America



MET'MAP, your aeronautical weather chart ! - Copyright ORBIFLY December 2007 - Disclaimer

ORBIFLY MET'MAP TEAM :

Programming & Development : Alexandra Zaïnal
Concept & original design : Baudouin d'Aumeries
Assistance for programming : Marc-Olivier Méhu
Technical & hardware support : Manuel Goepfert

Contact : metmap@orbifly.com




SOURCES & CREDITS :

   NOAA       Earth
Advisory